sensor_id;sensor_type;location;lat;lon;timestamp;temperature;humidity
18690;DHT22;9782;52.930;15.562;2023-06-22T00:00:48;19.30;1.00
18690;DHT22;9782;52.930;15.562;2023-06-22T00:03:15;19.30;1.00
18690;DHT22;9782;52.930;15.562;2023-06-22T00:05:42;19.20;1.00
18690;DHT22;9782;52.930;15.562;2023-06-22T00:08:08;19.20;1.00
18690;DHT22;9782;52.930;15.562;2023-06-22T00:10:37;19.10;1.00
18690;DHT22;9782;52.930;15.562;2023-06-22T00:13:04;19.10;1.00
18690;DHT22;9782;52.930;15.562;2023-06-22T00:15:30;19.00;1.00
18690;DHT22;9782;52.930;15.562;2023-06-22T00:17:58;18.90;1.00
18690;DHT22;9782;52.930;15.562;2023-06-22T00:20:24;18.90;1.00
18690;DHT22;9782;52.930;15.562;2023-06-22T00:22:53;18.90;1.00
18690;DHT22;9782;52.930;15.562;2023-06-22T00:25:20;18.80;1.00
18690;DHT22;9782;52.930;15.562;2023-06-22T00:27:51;18.80;1.00
18690;DHT22;9782;52.930;15.562;2023-06-22T00:30:19;18.80;1.00
18690;DHT22;9782;52.930;15.562;2023-06-22T00:32:46;18.80;1.00
18690;DHT22;9782;52.930;15.562;2023-06-22T00:35:12;18.90;1.00
18690;DHT22;9782;52.930;15.562;2023-06-22T00:37:40;18.90;27.20
18690;DHT22;9782;52.930;15.562;2023-06-22T00:40:08;18.90;78.60
18690;DHT22;9782;52.930;15.562;2023-06-22T00:42:37;18.90;99.90
18690;DHT22;9782;52.930;15.562;2023-06-22T00:45:07;18.90;99.90
18690;DHT22;9782;52.930;15.562;2023-06-22T00:47:34;18.90;99.90
18690;DHT22;9782;52.930;15.562;2023-06-22T00:50:03;18.90;99.90
18690;DHT22;9782;52.930;15.562;2023-06-22T00:52:31;18.90;99.90
18690;DHT22;9782;52.930;15.562;2023-06-22T00:54:59;18.80;99.90
18690;DHT22;9782;52.930;15.562;2023-06-22T00:57:28;18.70;1.00
18690;DHT22;9782;52.930;15.562;2023-06-22T00:59:55;18.70;1.00
18690;DHT22;9782;52.930;15.562;2023-06-22T01:02:23;18.50;1.00
18690;DHT22;9782;52.930;15.562;2023-06-22T01:04:50;18.40;10.90
18690;DHT22;9782;52.930;15.562;2023-06-22T01:07:25;18.40;52.50
18690;DHT22;9782;52.930;15.562;2023-06-22T01:10:01;18.30;1.00
18690;DHT22;9782;52.930;15.562;2023-06-22T01:12:32;18.20;1.00
18690;DHT22;9782;52.930;15.562;2023-06-22T01:15:05;18.00;1.00
18690;DHT22;9782;52.930;15.562;2023-06-22T01:17:36;17.80;1.00
18690;DHT22;9782;52.930;15.562;2023-06-22T01:20:08;17.70;1.00
18690;DHT22;9782;52.930;15.562;2023-06-22T01:22:44;17.50;1.00
18690;DHT22;9782;52.930;15.562;2023-06-22T01:25:18;17.40;1.00
18690;DHT22;9782;52.930;15.562;2023-06-22T01:27:53;17.40;1.00
18690;DHT22;9782;52.930;15.562;2023-06-22T01:30:28;17.30;1.00
18690;DHT22;9782;52.930;15.562;2023-06-22T01:32:58;17.30;1.00
18690;DHT22;9782;52.930;15.562;2023-06-22T01:35:26;17.30;1.00
18690;DHT22;9782;52.930;15.562;2023-06-22T01:37:53;17.30;1.00
18690;DHT22;9782;52.930;15.562;2023-06-22T01:40:21;17.30;1.00
18690;DHT22;9782;52.930;15.562;2023-06-22T01:42:48;17.30;1.00
18690;DHT22;9782;52.930;15.562;2023-06-22T01:45:17;17.30;1.00
18690;DHT22;9782;52.930;15.562;2023-06-22T01:47:47;17.20;1.00
18690;DHT22;9782;52.930;15.562;2023-06-22T01:50:15;17.20;1.00
18690;DHT22;9782;52.930;15.562;2023-06-22T01:52:42;17.20;1.00
18690;DHT22;9782;52.930;15.562;2023-06-22T01:55:08;17.20;1.00
18690;DHT22;9782;52.930;15.562;2023-06-22T01:57:35;17.20;1.00
18690;DHT22;9782;52.930;15.562;2023-06-22T02:00:04;17.20;1.00
18690;DHT22;9782;52.930;15.562;2023-06-22T02:02:36;17.10;1.00
18690;DHT22;9782;52.930;15.562;2023-06-22T02:05:07;17.00;1.00
18690;DHT22;9782;52.930;15.562;2023-06-22T02:07:41;17.00;1.00
18690;DHT22;9782;52.930;15.562;2023-06-22T02:10:12;16.90;1.00
18690;DHT22;9782;52.930;15.562;2023-06-22T02:12:41;16.90;1.00
18690;DHT22;9782;52.930;15.562;2023-06-22T02:15:09;16.80;1.00
18690;DHT22;9782;52.930;15.562;2023-06-22T02:17:38;16.80;1.00
18690;DHT22;9782;52.930;15.562;2023-06-22T02:20:12;16.70;1.00
18690;DHT22;9782;52.930;15.562;2023-06-22T02:22:39;16.70;1.00
18690;DHT22;9782;52.930;15.562;2023-06-22T02:25:06;16.70;1.00
18690;DHT22;9782;52.930;15.562;2023-06-22T02:27:33;16.80;1.00
18690;DHT22;9782;52.930;15.562;2023-06-22T02:30:00;16.80;1.00
18690;DHT22;9782;52.930;15.562;2023-06-22T02:32:27;16.90;1.00
18690;DHT22;9782;52.930;15.562;2023-06-22T02:34:54;16.90;16.70
18690;DHT22;9782;52.930;15.562;2023-06-22T02:37:22;16.90;30.60
18690;DHT22;9782;52.930;15.562;2023-06-22T02:39:50;16.90;9.50
18690;DHT22;9782;52.930;15.562;2023-06-22T02:42:17;16.90;1.00
18690;DHT22;9782;52.930;15.562;2023-06-22T02:44:46;16.90;1.00
18690;DHT22;9782;52.930;15.562;2023-06-22T02:47:13;16.90;1.00
18690;DHT22;9782;52.930;15.562;2023-06-22T02:49:39;16.90;1.00
18690;DHT22;9782;52.930;15.562;2023-06-22T02:52:07;16.80;1.00
18690;DHT22;9782;52.930;15.562;2023-06-22T02:54:35;16.80;1.00
18690;DHT22;9782;52.930;15.562;2023-06-22T02:57:02;16.90;5.70
18690;DHT22;9782;52.930;15.562;2023-06-22T02:59:29;16.90;24.70
18690;DHT22;9782;52.930;15.562;2023-06-22T03:01:56;16.90;36.40
18690;DHT22;9782;52.930;15.562;2023-06-22T03:04:23;16.90;24.90
18690;DHT22;9782;52.930;15.562;2023-06-22T03:06:49;17.00;80.90
18690;DHT22;9782;52.930;15.562;2023-06-22T03:09:17;17.00;99.90
18690;DHT22;9782;52.930;15.562;2023-06-22T03:11:45;17.00;70.50
18690;DHT22;9782;52.930;15.562;2023-06-22T03:14:11;17.10;66.70
18690;DHT22;9782;52.930;15.562;2023-06-22T03:16:38;17.20;97.30
18690;DHT22;9782;52.930;15.562;2023-06-22T03:19:06;17.20;99.90
18690;DHT22;9782;52.930;15.562;2023-06-22T03:21:33;17.30;99.90
18690;DHT22;9782;52.930;15.562;2023-06-22T03:24:00;17.40;99.90
18690;DHT22;9782;52.930;15.562;2023-06-22T03:26:26;17.40;99.90
18690;DHT22;9782;52.930;15.562;2023-06-22T03:28:54;17.40;1.00
18690;DHT22;9782;52.930;15.562;2023-06-22T03:31:21;17.50;1.00
18690;DHT22;9782;52.930;15.562;2023-06-22T03:33:48;17.50;1.00
18690;DHT22;9782;52.930;15.562;2023-06-22T03:36:16;17.50;1.00
18690;DHT22;9782;52.930;15.562;2023-06-22T03:38:44;17.50;1.00
18690;DHT22;9782;52.930;15.562;2023-06-22T03:41:11;17.40;1.00
18690;DHT22;9782;52.930;15.562;2023-06-22T03:43:38;17.40;1.00
18690;DHT22;9782;52.930;15.562;2023-06-22T03:46:06;17.50;1.00
18690;DHT22;9782;52.930;15.562;2023-06-22T03:48:33;17.50;1.00
18690;DHT22;9782;52.930;15.562;2023-06-22T03:51:01;17.60;1.00
18690;DHT22;9782;52.930;15.562;2023-06-22T03:53:28;17.70;1.00
18690;DHT22;9782;52.930;15.562;2023-06-22T03:55:55;17.80;1.00
18690;DHT22;9782;52.930;15.562;2023-06-22T03:58:22;17.90;1.00
18690;DHT22;9782;52.930;15.562;2023-06-22T04:00:50;18.20;1.00
18690;DHT22;9782;52.930;15.562;2023-06-22T04:03:19;18.80;1.00
18690;DHT22;9782;52.930;15.562;2023-06-22T04:05:46;19.60;1.00
18690;DHT22;9782;52.930;15.562;2023-06-22T04:08:14;20.30;1.00
18690;DHT22;9782;52.930;15.562;2023-06-22T04:10:41;21.00;99.90
18690;DHT22;9782;52.930;15.562;2023-06-22T04:13:08;21.50;99.90
18690;DHT22;9782;52.930;15.562;2023-06-22T04:15:35;22.00;1.00
18690;DHT22;9782;52.930;15.562;2023-06-22T04:18:02;22.50;99.90
18690;DHT22;9782;52.930;15.562;2023-06-22T04:20:31;22.90;1.00
18690;DHT22;9782;52.930;15.562;2023-06-22T04:22:58;23.10;99.90
18690;DHT22;9782;52.930;15.562;2023-06-22T04:25:24;23.50;1.00
18690;DHT22;9782;52.930;15.562;2023-06-22T04:27:51;23.80;1.00
18690;DHT22;9782;52.930;15.562;2023-06-22T04:30:18;24.00;99.90
18690;DHT22;9782;52.930;15.562;2023-06-22T04:32:45;24.30;1.00
18690;DHT22;9782;52.930;15.562;2023-06-22T04:35:23;24.60;1.00
18690;DHT22;9782;52.930;15.562;2023-06-22T04:37:52;24.80;99.90
18690;DHT22;9782;52.930;15.562;2023-06-22T04:40:20;25.10;1.00
18690;DHT22;9782;52.930;15.562;2023-06-22T04:42:47;25.20;1.00
18690;DHT22;9782;52.930;15.562;2023-06-22T04:45:18;25.40;99.90
18690;DHT22;9782;52.930;15.562;2023-06-22T04:47:45;25.50;1.00
18690;DHT22;9782;52.930;15.562;2023-06-22T04:50:12;25.60;99.90
18690;DHT22;9782;52.930;15.562;2023-06-22T04:52:38;25.70;1.00
18690;DHT22;9782;52.930;15.562;2023-06-22T04:55:07;25.80;99.90
18690;DHT22;9782;52.930;15.562;2023-06-22T04:57:34;25.90;95.50
18690;DHT22;9782;52.930;15.562;2023-06-22T05:00:06;26.00;1.00
18690;DHT22;9782;52.930;15.562;2023-06-22T05:02:43;25.90;1.00
18690;DHT22;9782;52.930;15.562;2023-06-22T05:05:10;25.90;99.90
18690;DHT22;9782;52.930;15.562;2023-06-22T05:07:39;25.90;99.90
18690;DHT22;9782;52.930;15.562;2023-06-22T05:10:10;25.60;99.90
18690;DHT22;9782;52.930;15.562;2023-06-22T05:12:38;25.30;99.90
18690;DHT22;9782;52.930;15.562;2023-06-22T05:15:06;25.10;99.90
18690;DHT22;9782;52.930;15.562;2023-06-22T05:17:33;24.60;1.00
18690;DHT22;9782;52.930;15.562;2023-06-22T05:20:00;24.10;1.00
18690;DHT22;9782;52.930;15.562;2023-06-22T05:22:27;23.60;1.00
18690;DHT22;9782;52.930;15.562;2023-06-22T05:24:54;23.10;99.90
18690;DHT22;9782;52.930;15.562;2023-06-22T05:27:22;22.70;1.00
18690;DHT22;9782;52.930;15.562;2023-06-22T05:29:49;22.40;99.90
18690;DHT22;9782;52.930;15.562;2023-06-22T05:32:16;22.20;1.00
18690;DHT22;9782;52.930;15.562;2023-06-22T05:34:42;22.00;99.70
18690;DHT22;9782;52.930;15.562;2023-06-22T05:37:09;21.90;99.90
18690;DHT22;9782;52.930;15.562;2023-06-22T05:39:36;21.80;1.00
18690;DHT22;9782;52.930;15.562;2023-06-22T05:42:05;21.80;1.00
18690;DHT22;9782;52.930;15.562;2023-06-22T05:44:33;21.70;1.00
18690;DHT22;9782;52.930;15.562;2023-06-22T05:47:00;21.70;1.00
18690;DHT22;9782;52.930;15.562;2023-06-22T05:49:27;21.70;1.00
18690;DHT22;9782;52.930;15.562;2023-06-22T05:51:58;21.80;1.00
18690;DHT22;9782;52.930;15.562;2023-06-22T05:54:25;21.80;1.00
18690;DHT22;9782;52.930;15.562;2023-06-22T05:56:52;21.80;1.00
18690;DHT22;9782;52.930;15.562;2023-06-22T05:59:19;21.90;99.90
18690;DHT22;9782;52.930;15.562;2023-06-22T06:01:47;21.90;99.90
18690;DHT22;9782;52.930;15.562;2023-06-22T06:04:16;22.00;99.90
18690;DHT22;9782;52.930;15.562;2023-06-22T06:06:43;22.00;1.00
18690;DHT22;9782;52.930;15.562;2023-06-22T06:09:10;22.10;1.00
18690;DHT22;9782;52.930;15.562;2023-06-22T06:11:37;22.10;1.00
18690;DHT22;9782;52.930;15.562;2023-06-22T06:14:04;22.20;1.00
18690;DHT22;9782;52.930;15.562;2023-06-22T06:16:30;22.20;99.90
18690;DHT22;9782;52.930;15.562;2023-06-22T06:18:58;22.30;99.90
18690;DHT22;9782;52.930;15.562;2023-06-22T06:21:25;22.40;3.00
18690;DHT22;9782;52.930;15.562;2023-06-22T06:23:52;22.50;1.00
18690;DHT22;9782;52.930;15.562;2023-06-22T06:26:19;22.50;1.00
18690;DHT22;9782;52.930;15.562;2023-06-22T06:28:55;22.60;1.00
18690;DHT22;9782;52.930;15.562;2023-06-22T06:31:22;22.80;1.00
18690;DHT22;9782;52.930;15.562;2023-06-22T06:33:49;22.90;1.00
18690;DHT22;9782;52.930;15.562;2023-06-22T06:36:17;23.10;1.00
18690;DHT22;9782;52.930;15.562;2023-06-22T06:38:44;23.30;1.00
18690;DHT22;9782;52.930;15.562;2023-06-22T06:41:12;23.50;1.00
18690;DHT22;9782;52.930;15.562;2023-06-22T06:43:39;23.70;99.90
18690;DHT22;9782;52.930;15.562;2023-06-22T06:46:07;23.80;1.00
18690;DHT22;9782;52.930;15.562;2023-06-22T06:48:34;23.90;1.00
18690;DHT22;9782;52.930;15.562;2023-06-22T06:51:01;24.00;1.00
18690;DHT22;9782;52.930;15.562;2023-06-22T06:53:29;24.10;1.00
18690;DHT22;9782;52.930;15.562;2023-06-22T06:55:56;24.30;1.00
18690;DHT22;9782;52.930;15.562;2023-06-22T06:58:23;24.40;99.90
18690;DHT22;9782;52.930;15.562;2023-06-22T07:00:50;24.50;91.50
18690;DHT22;9782;52.930;15.562;2023-06-22T07:03:16;24.50;1.00
18690;DHT22;9782;52.930;15.562;2023-06-22T07:05:43;24.40;1.00
18690;DHT22;9782;52.930;15.562;2023-06-22T07:08:10;24.40;1.00
18690;DHT22;9782;52.930;15.562;2023-06-22T07:10:38;24.40;1.00
18690;DHT22;9782;52.930;15.562;2023-06-22T07:13:05;24.30;99.90
18690;DHT22;9782;52.930;15.562;2023-06-22T07:15:32;24.30;99.90
18690;DHT22;9782;52.930;15.562;2023-06-22T07:17:58;24.30;99.90
18690;DHT22;9782;52.930;15.562;2023-06-22T07:20:25;24.40;99.90
18690;DHT22;9782;52.930;15.562;2023-06-22T07:22:52;24.40;99.90
18690;DHT22;9782;52.930;15.562;2023-06-22T07:25:19;24.50;99.90
18690;DHT22;9782;52.930;15.562;2023-06-22T07:27:57;24.70;99.90
18690;DHT22;9782;52.930;15.562;2023-06-22T07:30:24;24.70;99.90
18690;DHT22;9782;52.930;15.562;2023-06-22T07:32:52;24.80;1.00
18690;DHT22;9782;52.930;15.562;2023-06-22T07:35:19;24.70;1.00
18690;DHT22;9782;52.930;15.562;2023-06-22T07:37:45;24.80;1.00
18690;DHT22;9782;52.930;15.562;2023-06-22T07:40:13;24.80;1.00
18690;DHT22;9782;52.930;15.562;2023-06-22T07:42:39;24.80;1.00
18690;DHT22;9782;52.930;15.562;2023-06-22T07:45:08;24.90;1.00
18690;DHT22;9782;52.930;15.562;2023-06-22T07:47:35;24.90;1.00
18690;DHT22;9782;52.930;15.562;2023-06-22T07:50:02;25.00;99.90
18690;DHT22;9782;52.930;15.562;2023-06-22T07:52:29;25.10;99.90
18690;DHT22;9782;52.930;15.562;2023-06-22T07:54:56;25.10;99.90
18690;DHT22;9782;52.930;15.562;2023-06-22T07:57:23;25.20;99.90
18690;DHT22;9782;52.930;15.562;2023-06-22T07:59:57;25.40;99.90
18690;DHT22;9782;52.930;15.562;2023-06-22T08:02:25;25.40;99.90
18690;DHT22;9782;52.930;15.562;2023-06-22T08:04:52;25.40;49.20
18690;DHT22;9782;52.930;15.562;2023-06-22T08:07:19;25.40;1.00
18690;DHT22;9782;52.930;15.562;2023-06-22T08:09:47;25.40;1.00
18690;DHT22;9782;52.930;15.562;2023-06-22T08:12:14;25.40;1.00
18690;DHT22;9782;52.930;15.562;2023-06-22T08:14:42;25.50;1.00
18690;DHT22;9782;52.930;15.562;2023-06-22T08:17:09;25.50;1.00
18690;DHT22;9782;52.930;15.562;2023-06-22T08:19:39;25.50;1.00
18690;DHT22;9782;52.930;15.562;2023-06-22T08:22:06;25.50;1.00
18690;DHT22;9782;52.930;15.562;2023-06-22T08:24:32;25.60;1.00
18690;DHT22;9782;52.930;15.562;2023-06-22T08:26:59;25.70;1.00
18690;DHT22;9782;52.930;15.562;2023-06-22T08:29:26;25.80;1.00
18690;DHT22;9782;52.930;15.562;2023-06-22T08:31:53;25.80;1.00
18690;DHT22;9782;52.930;15.562;2023-06-22T08:34:20;25.80;1.00
18690;DHT22;9782;52.930;15.562;2023-06-22T08:36:50;25.90;1.00
18690;DHT22;9782;52.930;15.562;2023-06-22T08:39:18;25.90;1.00
18690;DHT22;9782;52.930;15.562;2023-06-22T08:41:45;26.00;1.00
18690;DHT22;9782;52.930;15.562;2023-06-22T08:44:12;26.00;1.00
18690;DHT22;9782;52.930;15.562;2023-06-22T08:46:39;26.10;1.00
18690;DHT22;9782;52.930;15.562;2023-06-22T08:49:07;26.20;1.00
18690;DHT22;9782;52.930;15.562;2023-06-22T08:51:35;26.40;1.00
18690;DHT22;9782;52.930;15.562;2023-06-22T08:54:03;26.60;1.00
18690;DHT22;9782;52.930;15.562;2023-06-22T08:56:30;26.70;1.00
18690;DHT22;9782;52.930;15.562;2023-06-22T08:58:57;26.80;1.00
18690;DHT22;9782;52.930;15.562;2023-06-22T09:01:24;26.80;1.00
18690;DHT22;9782;52.930;15.562;2023-06-22T09:03:50;26.80;1.00
18690;DHT22;9782;52.930;15.562;2023-06-22T09:06:22;26.80;1.00
18690;DHT22;9782;52.930;15.562;2023-06-22T09:08:49;26.70;1.00
18690;DHT22;9782;52.930;15.562;2023-06-22T09:11:17;26.70;1.00
18690;DHT22;9782;52.930;15.562;2023-06-22T09:13:44;26.80;1.00
18690;DHT22;9782;52.930;15.562;2023-06-22T09:16:11;27.00;1.00
18690;DHT22;9782;52.930;15.562;2023-06-22T09:18:38;27.00;1.00
18690;DHT22;9782;52.930;15.562;2023-06-22T09:21:05;27.00;1.00
18690;DHT22;9782;52.930;15.562;2023-06-22T09:23:32;27.20;1.00
18690;DHT22;9782;52.930;15.562;2023-06-22T09:25:59;27.20;1.00
18690;DHT22;9782;52.930;15.562;2023-06-22T09:28:27;27.20;1.00
18690;DHT22;9782;52.930;15.562;2023-06-22T09:30:54;27.20;1.00
18690;DHT22;9782;52.930;15.562;2023-06-22T09:33:24;27.10;1.00
18690;DHT22;9782;52.930;15.562;2023-06-22T09:35:51;27.20;1.00
18690;DHT22;9782;52.930;15.562;2023-06-22T09:38:18;27.30;1.00
18690;DHT22;9782;52.930;15.562;2023-06-22T09:40:45;27.30;1.00
18690;DHT22;9782;52.930;15.562;2023-06-22T09:43:11;27.30;1.00
18690;DHT22;9782;52.930;15.562;2023-06-22T09:45:40;27.30;1.00
18690;DHT22;9782;52.930;15.562;2023-06-22T09:48:06;27.40;1.00
18690;DHT22;9782;52.930;15.562;2023-06-22T09:50:35;27.50;1.00
18690;DHT22;9782;52.930;15.562;2023-06-22T09:53:02;27.60;1.00
18690;DHT22;9782;52.930;15.562;2023-06-22T09:55:28;27.60;1.00
18690;DHT22;9782;52.930;15.562;2023-06-22T09:57:55;27.70;1.00
18690;DHT22;9782;52.930;15.562;2023-06-22T10:00:22;27.70;1.00
18690;DHT22;9782;52.930;15.562;2023-06-22T10:02:50;27.70;1.00
18690;DHT22;9782;52.930;15.562;2023-06-22T10:05:17;27.80;1.00
18690;DHT22;9782;52.930;15.562;2023-06-22T10:07:44;27.90;1.00
18690;DHT22;9782;52.930;15.562;2023-06-22T10:10:11;27.80;1.00
18690;DHT22;9782;52.930;15.562;2023-06-22T10:12:42;27.80;1.00
18690;DHT22;9782;52.930;15.562;2023-06-22T10:15:10;27.80;1.00
18690;DHT22;9782;52.930;15.562;2023-06-22T10:17:37;27.80;1.00
18690;DHT22;9782;52.930;15.562;2023-06-22T10:20:06;28.00;1.00
18690;DHT22;9782;52.930;15.562;2023-06-22T10:22:37;28.10;1.00
18690;DHT22;9782;52.930;15.562;2023-06-22T10:25:05;28.20;1.00
18690;DHT22;9782;52.930;15.562;2023-06-22T10:27:32;28.10;1.00
18690;DHT22;9782;52.930;15.562;2023-06-22T10:29:59;28.10;1.00
18690;DHT22;9782;52.930;15.562;2023-06-22T10:32:25;28.00;1.00
18690;DHT22;9782;52.930;15.562;2023-06-22T10:34:53;28.00;1.00
18690;DHT22;9782;52.930;15.562;2023-06-22T10:37:23;28.00;1.00
18690;DHT22;9782;52.930;15.562;2023-06-22T10:39:50;28.00;1.00
18690;DHT22;9782;52.930;15.562;2023-06-22T10:42:17;28.10;1.00
18690;DHT22;9782;52.930;15.562;2023-06-22T10:44:43;28.20;1.00
18690;DHT22;9782;52.930;15.562;2023-06-22T10:47:10;28.20;1.00
18690;DHT22;9782;52.930;15.562;2023-06-22T10:49:38;28.30;1.00
18690;DHT22;9782;52.930;15.562;2023-06-22T10:52:06;28.30;1.00
18690;DHT22;9782;52.930;15.562;2023-06-22T10:54:34;28.40;1.00
18690;DHT22;9782;52.930;15.562;2023-06-22T10:57:02;28.50;1.00
18690;DHT22;9782;52.930;15.562;2023-06-22T10:59:29;28.50;1.00
18690;DHT22;9782;52.930;15.562;2023-06-22T11:01:56;28.70;1.00
18690;DHT22;9782;52.930;15.562;2023-06-22T11:04:23;28.80;1.00
18690;DHT22;9782;52.930;15.562;2023-06-22T11:06:50;28.90;1.00
18690;DHT22;9782;52.930;15.562;2023-06-22T11:09:17;29.00;1.00
18690;DHT22;9782;52.930;15.562;2023-06-22T11:11:49;29.20;1.00
18690;DHT22;9782;52.930;15.562;2023-06-22T11:14:16;29.40;1.00
18690;DHT22;9782;52.930;15.562;2023-06-22T11:16:43;29.60;1.00
18690;DHT22;9782;52.930;15.562;2023-06-22T11:19:10;29.70;1.00
18690;DHT22;9782;52.930;15.562;2023-06-22T11:21:36;29.90;1.00
18690;DHT22;9782;52.930;15.562;2023-06-22T11:24:04;30.00;1.00
18690;DHT22;9782;52.930;15.562;2023-06-22T11:26:30;30.10;1.00
18690;DHT22;9782;52.930;15.562;2023-06-22T11:28:59;30.30;1.00
18690;DHT22;9782;52.930;15.562;2023-06-22T11:31:26;30.40;1.00
18690;DHT22;9782;52.930;15.562;2023-06-22T11:33:53;30.50;1.00
18690;DHT22;9782;52.930;15.562;2023-06-22T11:36:20;30.70;1.00
18690;DHT22;9782;52.930;15.562;2023-06-22T11:38:47;30.80;1.00
18690;DHT22;9782;52.930;15.562;2023-06-22T11:41:13;30.80;1.00
18690;DHT22;9782;52.930;15.562;2023-06-22T11:43:40;30.80;1.00
18690;DHT22;9782;52.930;15.562;2023-06-22T11:46:08;30.80;1.00
18690;DHT22;9782;52.930;15.562;2023-06-22T11:48:35;30.90;1.00
18690;DHT22;9782;52.930;15.562;2023-06-22T11:51:03;31.00;1.00
18690;DHT22;9782;52.930;15.562;2023-06-22T11:53:31;31.00;1.00
18690;DHT22;9782;52.930;15.562;2023-06-22T11:56:00;31.00;1.00
18690;DHT22;9782;52.930;15.562;2023-06-22T11:58:27;31.00;1.00
18690;DHT22;9782;52.930;15.562;2023-06-22T12:00:53;31.00;1.00
18690;DHT22;9782;52.930;15.562;2023-06-22T12:03:21;31.00;1.00
18690;DHT22;9782;52.930;15.562;2023-06-22T12:05:49;30.90;1.00
18690;DHT22;9782;52.930;15.562;2023-06-22T12:08:16;30.90;1.00
18690;DHT22;9782;52.930;15.562;2023-06-22T12:10:43;30.70;1.00
18690;DHT22;9782;52.930;15.562;2023-06-22T12:13:09;30.60;1.00
18690;DHT22;9782;52.930;15.562;2023-06-22T12:15:36;30.50;1.00
18690;DHT22;9782;52.930;15.562;2023-06-22T12:18:03;30.40;1.00
18690;DHT22;9782;52.930;15.562;2023-06-22T12:20:31;30.30;1.00
18690;DHT22;9782;52.930;15.562;2023-06-22T12:22:58;30.40;1.00
18690;DHT22;9782;52.930;15.562;2023-06-22T12:25:25;30.60;1.00
18690;DHT22;9782;52.930;15.562;2023-06-22T12:27:52;30.70;1.00
18690;DHT22;9782;52.930;15.562;2023-06-22T12:30:19;30.90;1.00
18690;DHT22;9782;52.930;15.562;2023-06-22T12:32:46;31.00;1.00
18690;DHT22;9782;52.930;15.562;2023-06-22T12:35:12;31.10;1.00
18690;DHT22;9782;52.930;15.562;2023-06-22T12:37:42;31.10;1.00
18690;DHT22;9782;52.930;15.562;2023-06-22T12:40:10;31.30;1.00
18690;DHT22;9782;52.930;15.562;2023-06-22T12:42:37;31.70;1.00
18690;DHT22;9782;52.930;15.562;2023-06-22T12:45:05;32.10;1.00
18690;DHT22;9782;52.930;15.562;2023-06-22T12:47:32;32.40;1.00
18690;DHT22;9782;52.930;15.562;2023-06-22T12:49:59;32.40;1.00
18690;DHT22;9782;52.930;15.562;2023-06-22T12:52:25;32.40;1.00
18690;DHT22;9782;52.930;15.562;2023-06-22T12:54:54;32.50;1.00
18690;DHT22;9782;52.930;15.562;2023-06-22T12:57:20;32.60;1.00
18690;DHT22;9782;52.930;15.562;2023-06-22T12:59:47;32.50;1.00
18690;DHT22;9782;52.930;15.562;2023-06-22T13:02:14;32.50;1.00
18690;DHT22;9782;52.930;15.562;2023-06-22T13:04:41;32.30;1.00
18690;DHT22;9782;52.930;15.562;2023-06-22T13:07:08;32.10;1.00
18690;DHT22;9782;52.930;15.562;2023-06-22T13:09:36;32.00;1.00
18690;DHT22;9782;52.930;15.562;2023-06-22T13:12:05;31.90;1.00
18690;DHT22;9782;52.930;15.562;2023-06-22T13:14:32;31.60;1.00
18690;DHT22;9782;52.930;15.562;2023-06-22T13:16:59;31.50;1.00
18690;DHT22;9782;52.930;15.562;2023-06-22T13:19:25;31.70;1.00
18690;DHT22;9782;52.930;15.562;2023-06-22T13:21:54;31.60;1.00
18690;DHT22;9782;52.930;15.562;2023-06-22T13:24:21;31.60;1.00
18690;DHT22;9782;52.930;15.562;2023-06-22T13:26:47;31.60;1.00
18690;DHT22;9782;52.930;15.562;2023-06-22T13:29:16;31.50;1.00
18690;DHT22;9782;52.930;15.562;2023-06-22T13:31:42;31.50;1.00
18690;DHT22;9782;52.930;15.562;2023-06-22T13:34:09;31.40;1.00
18690;DHT22;9782;52.930;15.562;2023-06-22T13:36:36;31.30;1.00
18690;DHT22;9782;52.930;15.562;2023-06-22T13:39:03;31.30;1.00
18690;DHT22;9782;52.930;15.562;2023-06-22T13:41:30;31.10;1.00
18690;DHT22;9782;52.930;15.562;2023-06-22T13:43:56;30.90;1.00
18690;DHT22;9782;52.930;15.562;2023-06-22T13:46:25;30.80;1.00
18690;DHT22;9782;52.930;15.562;2023-06-22T13:48:51;30.70;1.00
18690;DHT22;9782;52.930;15.562;2023-06-22T13:51:18;30.50;1.00
18690;DHT22;9782;52.930;15.562;2023-06-22T13:53:45;30.30;1.00
18690;DHT22;9782;52.930;15.562;2023-06-22T13:56:11;30.20;1.00
18690;DHT22;9782;52.930;15.562;2023-06-22T13:58:38;30.00;1.00
18690;DHT22;9782;52.930;15.562;2023-06-22T14:01:05;29.90;1.00
18690;DHT22;9782;52.930;15.562;2023-06-22T14:03:33;30.10;1.00
18690;DHT22;9782;52.930;15.562;2023-06-22T14:06:00;30.10;1.00
18690;DHT22;9782;52.930;15.562;2023-06-22T14:08:27;30.10;1.00
18690;DHT22;9782;52.930;15.562;2023-06-22T14:10:53;30.00;1.00
18690;DHT22;9782;52.930;15.562;2023-06-22T14:13:20;29.90;1.00
18690;DHT22;9782;52.930;15.562;2023-06-22T14:15:47;29.90;1.00
18690;DHT22;9782;52.930;15.562;2023-06-22T14:18:14;29.80;1.00
18690;DHT22;9782;52.930;15.562;2023-06-22T14:20:43;29.90;1.00
18690;DHT22;9782;52.930;15.562;2023-06-22T14:23:10;29.80;1.00
18690;DHT22;9782;52.930;15.562;2023-06-22T14:25:37;29.90;1.00
18690;DHT22;9782;52.930;15.562;2023-06-22T14:28:03;30.00;1.00
18690;DHT22;9782;52.930;15.562;2023-06-22T14:30:30;30.10;1.00
18690;DHT22;9782;52.930;15.562;2023-06-22T14:32:57;30.20;1.00
18690;DHT22;9782;52.930;15.562;2023-06-22T14:35:24;30.30;1.00
18690;DHT22;9782;52.930;15.562;2023-06-22T14:37:52;30.30;1.00
18690;DHT22;9782;52.930;15.562;2023-06-22T14:40:19;30.30;1.00
18690;DHT22;9782;52.930;15.562;2023-06-22T14:42:45;30.20;1.00
18690;DHT22;9782;52.930;15.562;2023-06-22T14:45:13;30.30;1.00
18690;DHT22;9782;52.930;15.562;2023-06-22T14:47:40;30.30;1.00
18690;DHT22;9782;52.930;15.562;2023-06-22T14:50:07;30.30;1.00
18690;DHT22;9782;52.930;15.562;2023-06-22T14:52:34;30.30;1.00
18690;DHT22;9782;52.930;15.562;2023-06-22T14:55:02;30.30;1.00
18690;DHT22;9782;52.930;15.562;2023-06-22T14:57:29;30.30;1.00
18690;DHT22;9782;52.930;15.562;2023-06-22T14:59:56;30.40;1.00
18690;DHT22;9782;52.930;15.562;2023-06-22T15:02:23;30.40;1.00
18690;DHT22;9782;52.930;15.562;2023-06-22T15:04:49;30.40;1.00
18690;DHT22;9782;52.930;15.562;2023-06-22T15:07:18;30.30;1.00
18690;DHT22;9782;52.930;15.562;2023-06-22T15:09:45;30.30;1.00
18690;DHT22;9782;52.930;15.562;2023-06-22T15:12:13;30.30;1.00
18690;DHT22;9782;52.930;15.562;2023-06-22T15:14:40;30.30;1.00
18690;DHT22;9782;52.930;15.562;2023-06-22T15:17:08;30.20;1.00
18690;DHT22;9782;52.930;15.562;2023-06-22T15:19:35;30.20;1.00
18690;DHT22;9782;52.930;15.562;2023-06-22T15:22:04;30.20;1.00
18690;DHT22;9782;52.930;15.562;2023-06-22T15:24:31;30.20;1.00
18690;DHT22;9782;52.930;15.562;2023-06-22T15:26:58;30.20;1.00
18690;DHT22;9782;52.930;15.562;2023-06-22T15:29:26;30.10;1.00
18690;DHT22;9782;52.930;15.562;2023-06-22T15:31:53;30.10;1.00
18690;DHT22;9782;52.930;15.562;2023-06-22T15:34:20;30.10;1.00
18690;DHT22;9782;52.930;15.562;2023-06-22T15:36:46;30.10;1.00
18690;DHT22;9782;52.930;15.562;2023-06-22T15:39:13;30.00;1.00
18690;DHT22;9782;52.930;15.562;2023-06-22T15:41:40;30.00;99.90
18690;DHT22;9782;52.930;15.562;2023-06-22T15:44:08;30.10;1.00